createdAt,value
2016-10-27T00:00:15.939Z,76.08
2016-10-27T00:01:25.514Z,75.93
2016-10-27T00:02:35.107Z,75.89
2016-10-27T00:03:44.952Z,75.99
2016-10-27T00:04:54.884Z,76.03
2016-10-27T00:06:04.494Z,75.93
2016-10-27T00:07:14.272Z,76.27
2016-10-27T00:08:24.183Z,76.27
2016-10-27T00:09:34.115Z,76.08
2016-10-27T00:10:44.126Z,75.99
2016-10-27T00:11:54.159Z,76.18
2016-10-27T00:13:03.836Z,75.99
2016-10-27T00:14:14.165Z,75.99
2016-10-27T00:15:23.760Z,75.99
2016-10-27T00:16:34.294Z,76.18
2016-10-27T00:17:44.091Z,76.08
2016-10-27T00:18:53.794Z,75.99
2016-10-27T00:20:03.743Z,76.37
2016-10-27T00:21:13.308Z,75.51
2016-10-27T00:22:23.512Z,75.51
2016-10-27T00:23:33.063Z,76.27
2016-10-27T00:24:42.587Z,76.27
2016-10-27T00:25:52.435Z,75.42
2016-10-27T00:27:01.909Z,76.75
2016-10-27T00:28:12.494Z,76.37
2016-10-27T00:29:22.070Z,76.75
2016-10-27T00:30:32.177Z,76.65
2016-10-27T00:31:42.230Z,76.65
2016-10-27T00:32:51.953Z,76.65
2016-10-27T00:34:02.569Z,77.51
2016-10-27T00:35:12.167Z,76.84
2016-10-27T00:36:21.747Z,76.93
2016-10-27T00:37:31.354Z,76.56
2016-10-27T00:38:41.033Z,77.03
2016-10-27T00:39:51.293Z,77.03
2016-10-27T00:41:00.895Z,76.93
2016-10-27T00:42:10.968Z,76.93
2016-10-27T00:43:20.436Z,76.93
2016-10-27T00:44:30.572Z,77.12
2016-10-27T00:45:40.733Z,76.18
2016-10-27T00:46:50.696Z,76.46
2016-10-27T00:48:00.469Z,76.37
2016-10-27T00:49:10.059Z,76.08
2016-10-27T00:50:20.251Z,76.08
2016-10-27T00:51:30.091Z,76.18
2016-10-27T00:52:40.504Z,76.27
2016-10-27T00:53:50.307Z,76.18
2016-10-27T00:54:59.939Z,76.37
2016-10-27T00:56:09.918Z,75.99
2016-10-27T00:57:21.096Z,75.99
2016-10-27T00:58:31.396Z,76.46
2016-10-27T00:59:40.982Z,76.37
2016-10-27T01:00:50.884Z,75.99
2016-10-27T01:02:00.813Z,76.27
2016-10-27T01:03:11.085Z,76.65
2016-10-27T01:04:20.677Z,76.61
2016-10-27T01:05:30.548Z,76.75
2016-10-27T01:06:40.553Z,77.28
2016-10-27T01:07:50.199Z,77.18
2016-10-27T01:09:00.514Z,77.22
2016-10-27T01:10:10.240Z,77.56
2016-10-27T01:11:20.053Z,76.99
2016-10-27T01:12:29.966Z,76.93
2016-10-27T01:13:39.554Z,76.8
2016-10-27T01:14:49.367Z,76.52
2016-10-27T01:15:59.025Z,76.52
2016-10-27T01:17:09.041Z,76.52
2016-10-27T01:18:18.972Z,76.52
2016-10-27T01:19:28.606Z,76.42
2016-10-27T01:20:38.847Z,76.42
2016-10-27T01:21:49.116Z,76.42
2016-10-27T01:22:59.121Z,76.04
2016-10-27T01:24:08.921Z,76.32
2016-10-27T01:25:18.391Z,76.99
2016-10-27T01:26:28.316Z,76.99
2016-10-27T01:27:38.042Z,76.52
2016-10-27T01:28:47.697Z,76.14
2016-10-27T01:29:57.816Z,76.32
2016-10-27T01:31:08.646Z,76.52
2016-10-27T01:32:18.983Z,76.52
2016-10-27T01:33:28.916Z,76.61
2016-10-27T01:34:38.626Z,76.61
2016-10-27T01:35:48.851Z,76.61
2016-10-27T01:36:58.851Z,76.8
2016-10-27T01:38:08.789Z,76.52
2016-10-27T01:39:18.531Z,77.28
2016-10-27T01:40:28.166Z,77.56
2016-10-27T01:41:38.216Z,77.75
2016-10-27T01:42:48.111Z,78.23
2016-10-27T01:43:58.135Z,77.75
2016-10-27T01:45:08.269Z,77.66
2016-10-27T01:46:17.765Z,77.18
2016-10-27T01:47:27.746Z,77.09
2016-10-27T01:48:37.360Z,77.09
2016-10-27T01:49:47.553Z,77.28
2016-10-27T01:50:57.732Z,77.18
2016-10-27T01:52:07.693Z,77.66
2016-10-27T01:53:17.311Z,77.56
2016-10-27T01:54:26.930Z,77.56
2016-10-27T01:55:36.696Z,77.18
2016-10-27T01:56:46.198Z,77.09
2016-10-27T01:57:56.033Z,77.09
2016-10-27T01:59:05.935Z,77.56
2016-10-27T02:00:15.578Z,77.37
2016-10-27T02:01:25.441Z,77.28
2016-10-27T02:02:34.965Z,78.7
2016-10-27T02:03:44.671Z,78.42
2016-10-27T02:05:08.942Z,78.89
2016-10-27T02:06:18.956Z,78.13
2016-10-27T02:07:28.907Z,78.03
2016-10-27T02:08:39.204Z,77.37
2016-10-27T02:09:48.886Z,77.56
2016-10-27T02:10:59.144Z,77.37
2016-10-27T02:12:09.119Z,77.47
2016-10-27T02:13:19.273Z,77.37
2016-10-27T02:14:29.148Z,77.24
2016-10-27T02:15:38.746Z,77.56
2016-10-27T02:16:48.643Z,77.56
2016-10-27T02:17:58.503Z,77.47
2016-10-27T02:19:08.695Z,77.33
2016-10-27T02:20:18.261Z,77.43
2016-10-27T02:21:27.725Z,77.84
2016-10-27T02:22:37.607Z,77.62
2016-10-27T02:23:47.039Z,77.52
2016-10-27T02:24:56.832Z,77.71
2016-10-27T02:26:06.726Z,77.71
2016-10-27T02:27:16.590Z,77.33
2016-10-27T02:28:26.419Z,77.33
2016-10-27T02:29:35.876Z,77.71
2016-10-27T02:30:45.663Z,77.81
2016-10-27T02:31:56.129Z,77.52
2016-10-27T02:33:05.595Z,77.62
2016-10-27T02:34:15.084Z,77.71
2016-10-27T02:35:25.289Z,77.71
2016-10-27T02:36:35.140Z,77.9
2016-10-27T02:37:45.261Z,77.52
2016-10-27T02:38:54.679Z,77.62
2016-10-27T02:40:04.259Z,77.71
2016-10-27T02:41:14.098Z,77.24
2016-10-27T02:42:23.997Z,77.24
2016-10-27T02:45:42.307Z,77.43
2016-10-27T02:47:06.782Z,78.19
2016-10-27T02:48:16.544Z,77.52
2016-10-27T02:49:26.016Z,78
2016-10-27T02:50:35.570Z,77.52
2016-10-27T02:51:45.508Z,77.33
2016-10-27T02:52:55.312Z,77.33
2016-10-27T02:54:05.499Z,77.24
2016-10-27T02:55:16.260Z,77.52
2016-10-27T02:56:25.776Z,77.05
2016-10-27T02:57:35.606Z,77.14
2016-10-27T02:58:45.071Z,76.86
2016-10-27T02:59:55.527Z,76.86
2016-10-27T03:01:06.030Z,77.14
2016-10-27T03:02:15.854Z,76.95
2016-10-27T03:03:25.305Z,77.33
2016-10-27T03:04:34.716Z,77.14
2016-10-27T03:05:44.272Z,77.71
2016-10-27T03:06:54.061Z,77.33
2016-10-27T03:08:03.784Z,77.9
2016-10-27T03:09:13.532Z,77.81
2016-10-27T03:10:23.400Z,77.71
2016-10-27T03:11:33.340Z,77.24
2016-10-27T03:12:43.114Z,77.33
2016-10-27T03:13:53.024Z,77.71
2016-10-27T03:15:02.438Z,77.71
2016-10-27T03:16:11.887Z,77.71
2016-10-27T03:17:22.197Z,77.33
2016-10-27T03:18:31.959Z,77.24
2016-10-27T03:19:41.395Z,77.81
2016-10-27T03:20:50.948Z,77.33
2016-10-27T03:22:00.764Z,77.71
2016-10-27T03:23:10.645Z,77.62
2016-10-27T03:24:21.031Z,77.43
2016-10-27T03:25:30.919Z,78
2016-10-27T03:26:40.374Z,77.52
2016-10-27T03:27:49.802Z,77.62
2016-10-27T03:28:59.265Z,77.81
2016-10-27T03:30:09.029Z,77.81
2016-10-27T03:31:18.832Z,78.28
2016-10-27T03:32:43.093Z,78.66
2016-10-27T03:33:52.611Z,78.85
2016-10-27T03:35:02.331Z,79.14
2016-10-27T03:36:12.240Z,79.23
2016-10-27T03:37:22.245Z,79.23
2016-10-27T03:38:32.219Z,79.74
2016-10-27T03:39:41.722Z,85.63
2016-10-27T03:40:51.636Z,86.68
2016-10-27T03:42:01.893Z,83.87
2016-10-27T03:43:11.970Z,81.4
2016-10-27T03:44:21.425Z,79.5
2016-10-27T03:45:32.005Z,79.12
2016-10-27T03:46:42.564Z,78.83
2016-10-27T03:47:52.532Z,78.17
2016-10-27T03:49:02.142Z,78.55
2016-10-27T03:50:11.703Z,78.45
2016-10-27T03:51:21.207Z,78.45
2016-10-27T03:52:30.957Z,78.61
2016-10-27T03:53:41.040Z,78.03
2016-10-27T03:54:50.986Z,78.7
2016-10-27T03:56:00.962Z,78.51
2016-10-27T03:57:10.824Z,79.08
2016-10-27T03:58:20.337Z,78.8
2016-10-27T03:59:30.193Z,79.17
2016-10-27T04:00:40.213Z,79.31
2016-10-27T04:01:50.177Z,79.55
2016-10-27T04:03:00.626Z,80.51
2016-10-27T04:04:10.762Z,79.65
2016-10-27T04:05:21.782Z,80.51
2016-10-27T04:06:32.769Z,80.6
2016-10-27T04:07:42.473Z,80.79
2016-10-27T04:08:52.099Z,80.79
2016-10-27T04:10:01.736Z,80.6
2016-10-27T04:11:11.953Z,81.17
2016-10-27T04:12:22.271Z,80.22
2016-10-27T04:13:33.755Z,80.6
2016-10-27T04:14:44.275Z,80.13
2016-10-27T04:15:54.456Z,80.69
2016-10-27T04:17:05.173Z,80.69
2016-10-27T04:18:15.976Z,80.69
2016-10-27T04:19:26.186Z,80.6
2016-10-27T04:20:36.949Z,80.88
2016-10-27T04:21:47.620Z,80.79
2016-10-27T04:22:57.648Z,80.6
2016-10-27T04:24:07.599Z,82.21
2016-10-27T04:25:17.637Z,81.87
2016-10-27T04:26:27.537Z,80.83
2016-10-27T04:27:38.002Z,80.26
2016-10-27T04:28:51.197Z,80.26
2016-10-27T04:30:06.924Z,80.64
2016-10-27T04:31:17.533Z,80.26
2016-10-27T04:32:41.957Z,80.55
2016-10-27T04:33:53.629Z,80.07
2016-10-27T04:35:04.230Z,79.6
2016-10-27T04:36:19.838Z,80.07
2016-10-27T04:37:36.656Z,79.88
2016-10-27T04:38:57.150Z,79.5
2016-10-27T04:40:13.412Z,79.88
2016-10-27T04:41:32.397Z,79.6
2016-10-27T04:42:52.246Z,79.97
2016-10-27T04:44:06.177Z,79.79
2016-10-27T04:45:34.611Z,80.07
2016-10-27T04:46:52.171Z,79.88
2016-10-27T04:48:19.487Z,79.6
2016-10-27T04:49:29.515Z,79.69
2016-10-27T04:50:39.310Z,79.69
2016-10-27T04:51:49.818Z,79.79
2016-10-27T04:53:01.287Z,79.41
2016-10-27T04:54:12.608Z,79.41
2016-10-27T04:55:23.494Z,79.79
2016-10-27T04:56:35.344Z,79.6
2016-10-27T04:57:45.475Z,79.12
2016-10-27T04:58:55.490Z,79.31
2016-10-27T05:00:07.561Z,79.79
2016-10-27T05:01:19.073Z,79.69
2016-10-27T05:02:29.152Z,79.69
2016-10-27T05:03:38.805Z,79.88
2016-10-27T05:05:03.354Z,80.64
2016-10-27T05:06:13.245Z,81.4
2016-10-27T05:07:23.833Z,81.65
2016-10-27T05:08:33.444Z,81.55
2016-10-27T05:09:43.139Z,81.36
2016-10-27T05:10:53.243Z,81.55
2016-10-27T05:12:02.878Z,81.74
2016-10-27T05:13:12.955Z,81.07
2016-10-27T05:14:24.061Z,81.65
2016-10-27T05:15:34.395Z,81.65
2016-10-27T05:16:44.554Z,81.74
2016-10-27T05:17:54.655Z,81.36
2016-10-27T05:19:04.548Z,80.69
2016-10-27T05:20:14.979Z,81.17
2016-10-27T05:21:24.440Z,80.69
2016-10-27T05:22:35.417Z,80.22
2016-10-27T05:23:45.135Z,80.32
2016-10-27T05:24:55.449Z,80.69
2016-10-27T05:26:04.966Z,80.51
2016-10-27T05:27:14.432Z,80.32
2016-10-27T05:28:24.335Z,80.6
2016-10-27T05:29:34.293Z,80.6
2016-10-27T05:30:43.807Z,81.07
2016-10-27T05:31:53.707Z,80.41
2016-10-27T05:33:03.304Z,79.55
2016-10-27T05:34:13.190Z,79.74
2016-10-27T05:35:22.867Z,80.03
2016-10-27T05:36:32.411Z,79.84
2016-10-27T05:37:42.080Z,79.84
2016-10-27T05:38:52.669Z,79.84
2016-10-27T05:40:03.562Z,79.74
2016-10-27T05:41:13.742Z,79.46
2016-10-27T05:42:23.365Z,79.84
2016-10-27T05:43:32.894Z,80.13
2016-10-27T05:44:42.612Z,79.94
2016-10-27T05:45:52.997Z,79.84
2016-10-27T05:47:04.341Z,79.6
2016-10-27T05:48:14.318Z,79.6
2016-10-27T05:49:24.228Z,79.69
2016-10-27T05:50:34.060Z,79.5
2016-10-27T05:51:43.835Z,79.55
2016-10-27T05:52:53.285Z,79.97
2016-10-27T05:54:03.263Z,80.07
2016-10-27T05:55:13.046Z,79.6
2016-10-27T05:56:22.722Z,79.5
2016-10-27T05:57:32.849Z,79.5
2016-10-27T05:58:42.902Z,79.79
2016-10-27T05:59:52.822Z,79.46
2016-10-27T06:01:02.896Z,79.97
2016-10-27T06:02:12.780Z,79.69
2016-10-27T06:03:22.652Z,79.5
2016-10-27T06:04:32.796Z,79.88
2016-10-27T06:05:42.596Z,79.5
2016-10-27T06:06:52.214Z,79.41
2016-10-27T06:08:01.769Z,79.69
2016-10-27T06:09:11.633Z,79.79
2016-10-27T06:10:21.503Z,79.69
2016-10-27T06:11:31.720Z,79.69
2016-10-27T06:12:41.170Z,79.79
2016-10-27T06:13:51.018Z,79.6
2016-10-27T06:15:00.849Z,80.07
2016-10-27T06:16:11.093Z,79.79
2016-10-27T06:17:21.190Z,80.16
2016-10-27T06:18:31.100Z,79.88
2016-10-27T06:19:40.666Z,79.97
2016-10-27T06:20:50.907Z,80.07
2016-10-27T06:22:00.572Z,80.07
2016-10-27T06:23:10.621Z,79.88
2016-10-27T06:24:20.208Z,79.88
2016-10-27T06:25:29.708Z,79.79
2016-10-27T06:26:39.537Z,80.35
2016-10-27T06:27:49.774Z,80.64
2016-10-27T06:28:59.438Z,80.07
2016-10-27T06:30:09.594Z,80.16
2016-10-27T06:31:19.446Z,80.07
2016-10-27T06:32:29.247Z,79.79
2016-10-27T06:33:39.120Z,80.07
2016-10-27T06:34:49.159Z,80.26
2016-10-27T06:35:58.694Z,79.79
2016-10-27T06:37:08.211Z,79.69
2016-10-27T06:38:18.714Z,79.97
2016-10-27T06:39:28.548Z,79.69
2016-10-27T06:40:38.267Z,79.97
2016-10-27T06:41:48.560Z,79.6
2016-10-27T06:42:58.286Z,79.97
2016-10-27T06:44:08.182Z,80.07
2016-10-27T06:45:18.604Z,79.97
2016-10-27T06:46:28.536Z,79.88
2016-10-27T06:47:38.495Z,80.07
2016-10-27T06:48:48.211Z,79.79
2016-10-27T06:49:58.092Z,79.88
2016-10-27T06:51:07.814Z,79.79
2016-10-27T06:52:17.440Z,79.88
2016-10-27T06:53:27.326Z,79.88
2016-10-27T06:54:37.172Z,80.74
2016-10-27T06:55:47.337Z,79.88
2016-10-27T06:56:57.815Z,79.88
2016-10-27T06:58:07.666Z,79.88
2016-10-27T06:59:17.260Z,79.88
2016-10-27T07:00:27.109Z,80.07
2016-10-27T07:01:37.392Z,79.88
2016-10-27T07:02:47.212Z,80.26
2016-10-27T07:03:56.656Z,80.16
2016-10-27T07:05:20.949Z,80.58
2016-10-27T07:06:30.929Z,80.21
2016-10-27T07:07:41.415Z,79.79
2016-10-27T07:08:51.214Z,79.92
2016-10-27T07:10:01.483Z,79.92
2016-10-27T07:11:10.967Z,79.63
2016-10-27T07:12:20.527Z,80.11
2016-10-27T07:13:30.507Z,79.92
2016-10-27T07:14:39.974Z,80.02
2016-10-27T07:15:49.535Z,80.02
2016-10-27T07:17:00.244Z,80.11
2016-10-27T07:18:09.865Z,79.92
2016-10-27T07:19:19.635Z,79.92
2016-10-27T07:20:29.090Z,79.44
2016-10-27T07:21:39.291Z,79.63
2016-10-27T07:22:49.104Z,79.44
2016-10-27T07:23:59.946Z,79.44
2016-10-27T07:25:10.167Z,79.63
2016-10-27T07:26:34.444Z,79.92
2016-10-27T07:27:43.968Z,79.92
2016-10-27T07:28:54.219Z,79.35
2016-10-27T07:30:03.955Z,79.54
2016-10-27T07:31:13.762Z,79.35
2016-10-27T07:32:23.673Z,79.25
2016-10-27T07:33:33.513Z,79.25
2016-10-27T07:34:43.000Z,79.35
2016-10-27T07:35:52.483Z,79.44
2016-10-27T07:37:02.891Z,79.25
2016-10-27T07:38:12.818Z,78.88
2016-10-27T07:39:22.362Z,78.82
2016-10-27T07:40:32.117Z,79.16
2016-10-27T07:41:42.340Z,79.25
2016-10-27T07:42:52.101Z,78.91
2016-10-27T07:44:01.692Z,78.91
2016-10-27T07:45:11.257Z,79.11
2016-10-27T07:46:20.786Z,79.01
2016-10-27T07:47:30.652Z,78.91
2016-10-27T07:48:40.449Z,78.91
2016-10-27T07:49:50.398Z,79.3
2016-10-27T07:51:00.235Z,79.2
2016-10-27T07:52:10.051Z,79.49
2016-10-27T07:53:19.925Z,79.01
2016-10-27T07:54:29.770Z,79.68
2016-10-27T07:55:39.266Z,79.77
2016-10-27T07:56:48.737Z,79.96
2016-10-27T07:57:58.503Z,79.77
2016-10-27T07:59:08.398Z,79.77
2016-10-27T08:00:18.371Z,79.39
2016-10-27T08:01:27.912Z,79.86
2016-10-27T08:02:37.418Z,79.58
2016-10-27T08:03:48.642Z,79.58
2016-10-27T08:04:58.165Z,79.2
2016-10-27T08:06:08.324Z,79.01
2016-10-27T08:07:17.859Z,79.2
2016-10-27T08:08:27.959Z,79.01
2016-10-27T08:09:37.440Z,78.63
2016-10-27T08:10:47.046Z,78.72
2016-10-27T08:11:57.605Z,78.53
2016-10-27T08:13:07.205Z,78.48
2016-10-27T08:14:17.049Z,77.81
2016-10-27T08:15:26.883Z,77.81
2016-10-27T08:16:36.943Z,77.72
2016-10-27T08:17:47.244Z,77.62
2016-10-27T08:18:57.300Z,77.24
2016-10-27T08:20:07.915Z,77.05
2016-10-27T08:21:17.650Z,77.05
2016-10-27T08:22:27.395Z,76.76
2016-10-27T08:23:38.018Z,76.71
2016-10-27T08:24:48.708Z,76.23
2016-10-27T08:25:59.225Z,75.95
2016-10-27T08:27:09.146Z,76.04
2016-10-27T08:28:19.179Z,76.14
2016-10-27T08:29:29.511Z,75.76
2016-10-27T08:30:40.057Z,75.47
2016-10-27T08:31:49.733Z,75.85
2016-10-27T08:32:59.343Z,75.95
2016-10-27T08:34:09.331Z,76.14
2016-10-27T08:35:19.578Z,75.95
2016-10-27T08:36:29.262Z,76.14
2016-10-27T08:37:39.433Z,75.67
2016-10-27T08:38:49.367Z,75.85
2016-10-27T08:39:58.910Z,76.27
2016-10-27T08:41:08.941Z,75.42
2016-10-27T08:42:19.766Z,75.32
2016-10-27T08:43:29.467Z,74.84
2016-10-27T08:44:39.102Z,75.04
2016-10-27T08:45:49.570Z,75.42
2016-10-27T08:46:59.604Z,75.04
2016-10-27T08:48:09.648Z,75.23
2016-10-27T08:49:19.352Z,75.19
2016-10-27T08:50:28.883Z,74.84
2016-10-27T08:51:38.714Z,75.23
2016-10-27T08:52:48.964Z,74.84
2016-10-27T08:53:58.409Z,74.65
2016-10-27T08:55:08.794Z,74.18
2016-10-27T08:56:18.496Z,74.37
2016-10-27T08:57:28.310Z,74.08
2016-10-27T08:58:38.742Z,74.08
2016-10-27T08:59:48.426Z,73.41
2016-10-27T09:00:58.179Z,72.65
2016-10-27T09:02:08.175Z,72.75
2016-10-27T09:03:18.461Z,73.07
2016-10-27T09:04:28.483Z,73.07
2016-10-27T09:07:03.167Z,73.32
2016-10-27T09:08:13.133Z,73.7
2016-10-27T09:09:22.671Z,73.99
2016-10-27T09:10:32.435Z,73.22
2016-10-27T09:11:42.473Z,72.97
2016-10-27T09:12:52.364Z,72.41
2016-10-27T09:14:01.855Z,72.02
2016-10-27T09:15:11.887Z,72.02
2016-10-27T09:16:22.121Z,71.45
2016-10-27T09:17:31.852Z,71.93
2016-10-27T09:18:41.425Z,71.36
2016-10-27T09:19:51.391Z,71.55
2016-10-27T09:21:01.727Z,71.39
2016-10-27T09:22:11.520Z,71.36
2016-10-27T09:23:21.423Z,71.36
2016-10-27T09:24:31.269Z,71.17
2016-10-27T09:25:40.887Z,71.17
2016-10-27T09:26:50.684Z,71.45
2016-10-27T09:28:00.545Z,70.92
2016-10-27T09:29:09.985Z,71.58
2016-10-27T09:30:19.962Z,70.44
2016-10-27T09:31:29.833Z,71.11
2016-10-27T09:32:39.762Z,70.53
2016-10-27T09:33:50.452Z,71.39
2016-10-27T09:35:00.594Z,71.39
2016-10-27T09:36:10.102Z,70.44
2016-10-27T09:37:19.818Z,70.25
2016-10-27T09:38:29.450Z,69.96
2016-10-27T09:39:39.717Z,69.96
2016-10-27T09:40:49.549Z,70.06
2016-10-27T09:41:59.177Z,69.39
2016-10-27T09:43:08.971Z,69.77
2016-10-27T09:44:19.246Z,69.39
2016-10-27T09:45:29.197Z,69.96
2016-10-27T09:46:38.844Z,70.28
2016-10-27T09:47:48.610Z,69.77
2016-10-27T09:48:58.168Z,69.9
2016-10-27T09:50:08.946Z,69.62
2016-10-27T09:51:18.968Z,69.52
2016-10-27T09:52:28.706Z,69.14
2016-10-27T09:53:38.481Z,69.62
2016-10-27T09:54:48.291Z,69.52
2016-10-27T09:55:57.899Z,69.77
2016-10-27T09:57:07.754Z,69.96
2016-10-27T09:58:17.379Z,69.23
2016-10-27T09:59:27.007Z,69.14
2016-10-27T10:00:37.430Z,69.04
2016-10-27T10:01:47.273Z,68.66
2016-10-27T10:02:57.528Z,69.43
2016-10-27T10:04:07.016Z,69.14
2016-10-27T10:05:17.350Z,68.47
2016-10-27T10:06:27.152Z,68.47
2016-10-27T10:07:38.377Z,68.38
2016-10-27T10:08:48.375Z,68.38
2016-10-27T10:09:58.417Z,67.8
2016-10-27T10:11:08.021Z,67.99
2016-10-27T10:12:18.739Z,68.28
2016-10-27T10:13:28.980Z,67.61
2016-10-27T10:14:38.789Z,67.61
2016-10-27T10:15:48.245Z,67.71
2016-10-27T10:16:57.822Z,67.55
2016-10-27T10:18:07.575Z,67.07
2016-10-27T10:19:17.260Z,67.46
2016-10-27T10:20:27.649Z,67.27
2016-10-27T10:21:37.215Z,66.98
2016-10-27T10:24:12.253Z,67.07
2016-10-27T10:25:22.978Z,67.27
2016-10-27T10:26:33.446Z,67.65
2016-10-27T10:27:43.131Z,67.17
2016-10-27T10:28:53.428Z,67.46
2016-10-27T10:30:03.225Z,66.41
2016-10-27T10:31:13.454Z,66.88
2016-10-27T10:32:23.566Z,66.15
2016-10-27T10:33:33.317Z,66.25
2016-10-27T10:34:43.570Z,66.06
2016-10-27T10:35:53.884Z,66.06
2016-10-27T10:37:18.126Z,65.58
2016-10-27T10:38:28.044Z,65.58
2016-10-27T10:39:37.847Z,65.58
2016-10-27T10:40:47.807Z,65.1
2016-10-27T10:41:57.393Z,64.72
2016-10-27T10:43:07.495Z,64.62
2016-10-27T10:44:18.300Z,64.91
2016-10-27T10:45:28.024Z,65.01
2016-10-27T10:46:37.499Z,65.01
2016-10-27T10:47:47.269Z,65.1
2016-10-27T10:48:56.869Z,64.05
2016-10-27T10:50:06.764Z,64.81
2016-10-27T10:51:16.917Z,64.81
2016-10-27T10:52:26.604Z,65.45
2016-10-27T10:53:36.202Z,65.45
2016-10-27T10:54:46.180Z,64.91
2016-10-27T10:55:56.661Z,65.39
2016-10-27T10:57:06.407Z,65.3
2016-10-27T10:58:16.277Z,65.48
2016-10-27T10:59:25.892Z,65.26
2016-10-27T11:00:35.443Z,65.48
2016-10-27T11:01:45.712Z,65.3
2016-10-27T11:02:55.563Z,65.2
2016-10-27T11:04:05.991Z,65.01
2016-10-27T11:05:15.482Z,64.62
2016-10-27T11:06:24.989Z,64.25
2016-10-27T11:07:35.257Z,64.25
2016-10-27T11:08:45.063Z,64.81
2016-10-27T11:09:54.745Z,65.1
2016-10-27T11:11:04.250Z,64.53
2016-10-27T11:12:13.848Z,64.81
2016-10-27T11:13:23.684Z,64.72
2016-10-27T11:14:33.865Z,64.62
2016-10-27T11:15:43.762Z,65.01
2016-10-27T11:16:53.909Z,64.91
2016-10-27T11:18:03.492Z,64.81
2016-10-27T11:19:13.316Z,64.34
2016-10-27T11:20:23.224Z,64.91
2016-10-27T11:21:32.983Z,65.67
2016-10-27T11:22:42.478Z,65.01
2016-10-27T11:23:52.024Z,65.2
2016-10-27T11:25:02.465Z,65.1
2016-10-27T11:26:12.520Z,65.3
2016-10-27T11:27:22.638Z,65.48
2016-10-27T11:28:32.245Z,65.39
2016-10-27T11:29:42.012Z,65.3
2016-10-27T11:30:52.522Z,65.67
2016-10-27T11:32:02.088Z,65.3
2016-10-27T11:33:11.722Z,65.48
2016-10-27T11:34:21.201Z,65.77
2016-10-27T11:35:31.648Z,65.48
2016-10-27T11:36:41.602Z,65.39
2016-10-27T11:37:51.234Z,65.2
2016-10-27T11:39:01.149Z,65.58
2016-10-27T11:40:11.125Z,65.48
2016-10-27T11:41:20.839Z,65.58
2016-10-27T11:42:31.198Z,65.39
2016-10-27T11:43:42.114Z,65.3
2016-10-27T11:44:51.705Z,65.3
2016-10-27T11:46:16.457Z,64.72
2016-10-27T11:47:26.338Z,64.72
2016-10-27T11:48:36.397Z,64.75
2016-10-27T11:49:46.607Z,64.43
2016-10-27T11:50:56.202Z,64.43
2016-10-27T11:52:05.868Z,65.3
2016-10-27T11:53:15.840Z,65.48
2016-10-27T11:54:25.604Z,65.58
2016-10-27T11:55:35.140Z,65.61
2016-10-27T11:56:45.454Z,65.2
2016-10-27T11:57:55.670Z,65.04
2016-10-27T11:59:06.179Z,64.47
2016-10-27T12:00:16.632Z,64.94
2016-10-27T12:01:26.890Z,64.85
2016-10-27T12:02:51.584Z,64.18
2016-10-27T12:04:01.630Z,64.18
2016-10-27T12:05:12.459Z,63.51
2016-10-27T12:06:22.208Z,63.42
2016-10-27T12:07:31.779Z,62.94
2016-10-27T12:08:41.329Z,63.13
2016-10-27T12:09:51.756Z,63.32
2016-10-27T12:11:02.099Z,63.03
2016-10-27T12:12:11.905Z,62.94
2016-10-27T12:13:21.436Z,62.08
2016-10-27T12:14:31.676Z,62.55
2016-10-27T12:15:41.481Z,62.27
2016-10-27T12:16:51.224Z,62.46
2016-10-27T12:18:01.076Z,62.08
2016-10-27T12:19:10.916Z,61.79
2016-10-27T12:20:20.578Z,61.69
2016-10-27T12:21:30.100Z,61.6
2016-10-27T12:22:39.934Z,61.63
2016-10-27T12:23:49.647Z,61.72
2016-10-27T12:24:59.611Z,61.54
2016-10-27T12:26:09.433Z,61.54
2016-10-27T12:27:19.273Z,61.16
2016-10-27T12:28:29.185Z,61.06
2016-10-27T12:29:39.520Z,60.68
2016-10-27T12:30:49.117Z,60.96
2016-10-27T12:31:59.288Z,61.54
2016-10-27T12:33:08.890Z,60.77
2016-10-27T12:34:18.378Z,61.06
2016-10-27T12:35:28.890Z,60.96
2016-10-27T12:36:38.535Z,61.35
2016-10-27T12:37:48.725Z,61.16
2016-10-27T12:38:58.938Z,60.96
2016-10-27T12:40:09.187Z,60.87
2016-10-27T12:41:19.316Z,60.01
2016-10-27T12:42:29.354Z,59.66
2016-10-27T12:43:38.956Z,59.37
2016-10-27T12:44:48.421Z,58.8
2016-10-27T12:45:58.013Z,58.8
2016-10-27T12:47:07.875Z,57.55
2016-10-27T12:48:17.858Z,57.65
2016-10-27T12:49:27.391Z,57.07
2016-10-27T12:50:37.137Z,57.26
2016-10-27T12:51:46.893Z,56.98
2016-10-27T12:52:57.125Z,56.6
2016-10-27T12:54:06.617Z,56.12
2016-10-27T12:55:16.718Z,56.12
2016-10-27T12:56:26.242Z,56.4
2016-10-27T12:57:35.780Z,56.5
2016-10-27T12:58:45.885Z,56.69
2016-10-27T12:59:56.165Z,56.6
2016-10-27T13:01:05.739Z,56.6
2016-10-27T13:02:16.101Z,56.12
2016-10-27T13:03:25.638Z,55.83
2016-10-27T13:04:35.583Z,56.6
2016-10-27T13:05:45.138Z,56.88
2016-10-27T13:06:55.174Z,56.4
2016-10-27T13:08:05.304Z,55.45
2016-10-27T13:09:15.401Z,56.02
2016-10-27T13:10:26.491Z,56.88
2016-10-27T13:11:36.207Z,57.07
2016-10-27T13:12:46.224Z,57.17
2016-10-27T13:13:55.763Z,56.5
2016-10-27T13:15:05.868Z,56.5
2016-10-27T13:16:16.218Z,56.21
2016-10-27T13:17:26.100Z,56.5
2016-10-27T13:18:36.124Z,56.79
2016-10-27T13:19:45.755Z,57.55
2016-10-27T13:20:55.740Z,57.36
2016-10-27T13:22:05.682Z,57.65
2016-10-27T13:23:15.274Z,57.36
2016-10-27T13:24:25.429Z,57.55
2016-10-27T13:25:35.222Z,56.88
2016-10-27T13:26:45.528Z,56.6
2016-10-27T13:27:56.678Z,56.98
2016-10-27T13:29:22.739Z,56.12
2016-10-27T13:30:33.853Z,56.88
2016-10-27T13:31:43.642Z,56.88
2016-10-27T13:32:53.342Z,57.07
2016-10-27T13:34:03.198Z,56.98
2016-10-27T13:35:13.363Z,56.5
2016-10-27T13:36:23.299Z,56.6
2016-10-27T13:37:33.477Z,56.5
2016-10-27T13:38:44.218Z,56.5
2016-10-27T13:39:54.090Z,56.5
2016-10-27T13:41:18.636Z,56.79
2016-10-27T13:42:28.865Z,57.17
2016-10-27T13:43:38.688Z,57.17
2016-10-27T13:44:48.360Z,57.17
2016-10-27T13:45:58.237Z,57.17
2016-10-27T13:47:08.054Z,55.93
2016-10-27T13:48:18.988Z,55.83
2016-10-27T13:49:29.031Z,55.83
2016-10-27T13:50:39.045Z,56.02
2016-10-27T13:51:49.479Z,56.4
2016-10-27T13:52:59.883Z,56.31
2016-10-27T13:54:09.763Z,55.93
2016-10-27T13:55:19.711Z,56.5
2016-10-27T13:56:29.173Z,56.31
2016-10-27T13:57:40.204Z,56.4
2016-10-27T13:58:50.581Z,55.83
2016-10-27T14:00:00.114Z,56.88
2016-10-27T14:01:10.118Z,56.6
2016-10-27T14:02:19.838Z,56.79
2016-10-27T14:03:29.906Z,57.17
2016-10-27T14:04:41.000Z,57.17
2016-10-27T14:05:50.782Z,57.17
2016-10-27T14:07:00.716Z,57.26
2016-10-27T14:08:10.809Z,57.17
2016-10-27T14:09:20.739Z,57.46
2016-10-27T14:10:31.502Z,57.84
2016-10-27T14:11:41.204Z,57.46
2016-10-27T14:12:51.560Z,57.55
2016-10-27T14:14:01.520Z,57.46
2016-10-27T14:15:11.674Z,57.46
2016-10-27T14:16:22.184Z,56.98
2016-10-27T14:17:32.060Z,56.79
2016-10-27T14:18:42.237Z,56.21
2016-10-27T14:19:52.037Z,55.93
2016-10-27T14:21:02.939Z,56.6
2016-10-27T14:22:13.470Z,56.5
2016-10-27T14:23:23.137Z,56.88
2016-10-27T14:24:33.856Z,56.88
2016-10-27T14:25:43.472Z,56.88
2016-10-27T14:26:55.068Z,56.88
2016-10-27T14:28:05.350Z,56.5
2016-10-27T14:29:15.628Z,56.4
2016-10-27T14:30:25.236Z,56.88
2016-10-27T14:31:35.666Z,57.07
2016-10-27T14:32:48.787Z,57.26
2016-10-27T14:34:15.864Z,58.03
2016-10-27T14:35:25.519Z,58.98
2016-10-27T14:36:35.698Z,58.8
2016-10-27T14:37:45.597Z,60.04
2016-10-27T14:38:56.175Z,60.13
2016-10-27T14:40:06.045Z,60.61
2016-10-27T14:41:16.845Z,61.57
2016-10-27T14:42:26.947Z,61.66
2016-10-27T14:43:37.106Z,62.43
2016-10-27T14:44:47.222Z,62.62
2016-10-27T14:45:57.941Z,62.71
2016-10-27T14:47:09.495Z,62.62
2016-10-27T14:48:43.202Z,62.49
2016-10-27T14:50:06.460Z,62.59
2016-10-27T14:51:26.970Z,62.62
2016-10-27T14:52:46.186Z,62.43
2016-10-27T14:54:08.658Z,62.71
2016-10-27T14:55:27.334Z,63.07
2016-10-27T14:56:37.742Z,62.87
2016-10-27T14:57:47.941Z,62.97
2016-10-27T14:58:58.828Z,63.16
2016-10-27T15:00:24.337Z,63.45
2016-10-27T15:01:33.888Z,63.45
2016-10-27T15:02:44.656Z,63.45
2016-10-27T15:03:55.695Z,64.15
2016-10-27T15:05:21.135Z,63.83
2016-10-27T15:06:31.304Z,64.31
2016-10-27T15:07:41.942Z,64.22
2016-10-27T15:10:18.421Z,64.12
2016-10-27T15:11:42.932Z,64.88
2016-10-27T15:12:52.947Z,64.02
2016-10-27T15:14:02.872Z,64.22
2016-10-27T15:15:12.526Z,64.4
2016-10-27T15:16:22.170Z,64.69
2016-10-27T15:17:32.333Z,64.59